Time;durP1;ratioP1;P1;durP2;ratioP2;P2;SDS_P1;SDS_P2;PMS_P1;PMS_P2;Temp;Humidity;BMP_temperature;BMP_pressure;BME280_temperature;BME280_humidity;BME280_pressure;Samples;Min_cycle;Max_cycle;Signal;HPM_P1;HPM_P2
2023/04/20 00:00:26;;;;;;;7.65;3.53;;;10.90;37.30;;;;;;5020451;28;20053;-47
2023/04/20 00:02:53;;;;;;;11.23;3.22;;;10.80;36.70;;;;;;5021769;28;20056;-49
2023/04/20 00:05:22;;;;;;;10.02;3.30;;;10.70;36.60;;;;;;5019021;28;20413;-49
2023/04/20 00:07:49;;;;;;;7.43;3.33;;;10.70;36.50;;;;;;5019938;28;20060;-47
2023/04/20 00:10:16;;;;;;;8.70;3.53;;;10.70;36.50;;;;;;5019898;28;20057;-47
2023/04/20 00:12:43;;;;;;;7.95;3.45;;;10.60;36.70;;;;;;5021906;28;20061;-47
2023/04/20 00:15:12;;;;;;;6.13;3.28;;;10.60;36.70;;;;;;5020496;28;20060;-47
2023/04/20 00:17:39;;;;;;;7.28;3.38;;;10.60;36.70;;;;;;5021581;28;20049;-48
2023/04/20 00:20:08;;;;;;;6.35;3.50;;;10.60;36.70;;;;;;5020375;28;20421;-50
2023/04/20 00:22:35;;;;;;;6.38;3.20;;;10.50;36.50;;;;;;5019505;28;20060;-48
2023/04/20 00:25:03;;;;;;;7.40;3.42;;;10.50;36.60;;;;;;5019025;28;20053;-46
2023/04/20 00:27:30;;;;;;;9.50;3.38;;;10.50;36.70;;;;;;5018556;28;20049;-46
2023/04/20 00:29:57;;;;;;;7.30;2.80;;;10.50;36.70;;;;;;5021780;28;20053;-48
2023/04/20 00:32:27;;;;;;;8.55;3.33;;;10.50;36.70;;;;;;5021192;28;20493;-48
2023/04/20 00:34:54;;;;;;;5.38;3.20;;;10.50;36.70;;;;;;5017154;28;20053;-48
2023/04/20 00:37:24;;;;;;;9.23;3.35;;;10.60;36.70;;;;;;5017761;28;20064;-49
2023/04/20 00:39:51;;;;;;;14.32;4.05;;;10.60;36.70;;;;;;5020680;28;21447;-48
2023/04/20 00:42:18;;;;;;;7.70;3.67;;;10.60;36.70;;;;;;5021181;28;20238;-47
2023/04/20 00:44:46;;;;;;;7.45;3.50;;;10.60;36.70;;;;;;5021051;28;20061;-47
2023/04/20 00:47:13;;;;;;;8.27;3.30;;;10.60;36.70;;;;;;5018925;28;20049;-51
2023/04/20 00:49:41;;;;;;;5.82;2.97;;;10.60;36.60;;;;;;5017219;28;20429;-49
2023/04/20 00:52:09;;;;;;;6.47;3.40;;;10.60;36.60;;;;;;5020070;28;20052;-49
2023/04/20 00:54:36;;;;;;;6.95;2.97;;;10.60;36.60;;;;;;5019312;28;20065;-46
2023/04/20 00:57:04;;;;;;;6.28;2.88;;;10.60;36.70;;;;;;5020127;28;20520;-49
2023/04/20 00:59:32;;;;;;;7.75;3.25;;;10.60;36.80;;;;;;5020037;28;20053;-48
2023/04/20 01:01:59;;;;;;;8.45;3.25;;;10.60;37.10;;;;;;5020806;28;20053;-49
2023/04/20 01:04:26;;;;;;;9.05;3.40;;;10.70;37.10;;;;;;5001754;22;20058;-86
2023/04/20 01:06:55;;;;;;;4.47;2.40;;;10.60;37.10;;;;;;4981697;28;20062;-86
2023/04/20 01:09:23;;;;;;;6.53;3.72;;;10.70;37.30;;;;;;4983053;28;20073;-91
2023/04/20 01:11:51;;;;;;;8.20;2.97;;;10.70;37.50;;;;;;4983060;28;20142;-86
2023/04/20 01:14:18;;;;;;;11.00;3.75;;;10.70;37.40;;;;;;4982805;28;20502;-85
2023/04/20 01:16:46;;;;;;;9.52;3.80;;;10.70;37.30;;;;;;4983863;28;20525;-87
2023/04/20 01:19:15;;;;;;;6.82;3.08;;;10.70;37.20;;;;;;4982979;28;20177;-86
2023/04/20 01:21:42;;;;;;;12.40;3.80;;;10.70;37.30;;;;;;4983374;28;20054;-85
2023/04/20 01:24:11;;;;;;;4.97;2.95;;;10.70;37.60;;;;;;4982923;28;20050;-87
2023/04/20 01:26:39;;;;;;;6.07;3.03;;;10.70;37.90;;;;;;4981755;28;20105;-85
2023/04/20 01:29:06;;;;;;;7.28;3.53;;;10.70;38.00;;;;;;4980018;28;20505;-87
2023/04/20 01:31:33;;;;;;;8.85;3.47;;;10.70;38.30;;;;;;4978829;28;20498;-87
2023/04/20 01:34:00;;;;;;;7.07;3.28;;;10.70;38.60;;;;;;4983571;28;20520;-87
2023/04/20 01:36:28;;;;;;;8.25;3.53;;;10.60;38.50;;;;;;4982488;28;20062;-86
2023/04/20 01:38:57;;;;;;;10.85;3.55;;;10.60;38.70;;;;;;4983630;28;20060;-87
2023/04/20 01:41:26;;;;;;;9.32;3.55;;;10.50;38.70;;;;;;4982239;28;20054;-86
2023/04/20 01:43:53;;;;;;;12.73;4.35;;;10.40;38.90;;;;;;4982853;28;20058;-91
2023/04/20 01:46:21;;;;;;;7.03;3.50;;;10.40;39.20;;;;;;4980587;28;20053;-90
2023/04/20 01:48:48;;;;;;;9.00;4.00;;;10.30;39.40;;;;;;4981890;28;20050;-90
2023/04/20 01:51:15;;;;;;;9.93;4.00;;;10.30;39.70;;;;;;4981797;28;20504;-89
2023/04/20 01:53:43;;;;;;;6.57;3.30;;;10.20;39.60;;;;;;4982795;28;20249;-84
2023/04/20 01:56:10;;;;;;;7.32;3.92;;;10.10;39.50;;;;;;4982340;28;20058;-87
2023/04/20 01:58:39;;;;;;;6.90;3.50;;;10.10;39.70;;;;;;4982853;28;20317;-87
2023/04/20 02:01:06;;;;;;;12.18;4.10;;;10.10;40.00;;;;;;4980777;28;20061;-86
2023/04/20 02:03:33;;;;;;;10.35;3.92;;;10.00;40.20;;;;;;4981574;28;20410;-89
2023/04/20 02:06:01;;;;;;;6.45;3.03;;;10.00;40.40;;;;;;4981601;28;20065;-88
2023/04/20 02:08:29;;;;;;;6.95;3.60;;;10.00;40.50;;;;;;4988254;28;20054;-88
2023/04/20 02:11:12;;;;;;;9.18;4.32;;;10.00;40.60;;;;;;4991080;28;20414;-85
2023/04/20 02:13:41;;;;;;;7.22;3.75;;;9.90;40.80;;;;;;4985394;28;20486;-85
2023/04/20 02:16:08;;;;;;;7.40;3.95;;;9.90;40.80;;;;;;4984365;28;20478;-85
2023/04/20 02:18:36;;;;;;;6.82;4.10;;;9.90;41.10;;;;;;4986611;28;20050;-86
2023/04/20 02:21:04;;;;;;;9.85;4.40;;;9.90;41.20;;;;;;4986019;28;20054;-85
2023/04/20 02:23:31;;;;;;;7.70;3.60;;;9.90;41.40;;;;;;4986548;28;20062;-90
2023/04/20 02:25:59;;;;;;;13.38;4.38;;;9.90;41.30;;;;;;4985662;28;20054;-89
2023/04/20 02:28:26;;;;;;;7.53;3.17;;;9.80;41.40;;;;;;4986023;28;20439;-88
2023/04/20 02:30:55;;;;;;;8.95;4.15;;;9.80;41.40;;;;;;4983840;28;20061;-90
2023/04/20 02:33:22;;;;;;;10.63;3.63;;;9.80;41.60;;;;;;4986797;28;20069;-86
2023/04/20 02:35:51;;;;;;;13.80;3.88;;;9.80;41.50;;;;;;4986124;28;20084;-85
2023/04/20 02:38:19;;;;;;;12.88;4.50;;;9.80;41.70;;;;;;4985768;28;20410;-85
2023/04/20 02:40:46;;;;;;;11.48;4.13;;;9.80;41.60;;;;;;4985147;28;20517;-85
2023/04/20 02:43:13;;;;;;;4.97;3.05;;;9.80;41.60;;;;;;4985890;28;20054;-85
2023/04/20 02:45:41;;;;;;;7.95;3.65;;;9.90;41.60;;;;;;4984398;28;20061;-87
2023/04/20 02:48:09;;;;;;;15.18;4.50;;;9.90;41.60;;;;;;4985476;28;20053;-86
2023/04/20 02:50:37;;;;;;;7.03;3.83;;;9.90;41.80;;;;;;4985895;28;20054;-89
2023/04/20 02:53:04;;;;;;;5.25;3.35;;;9.90;41.50;;;;;;4986526;28;20061;-93
2023/04/20 02:55:32;;;;;;;10.18;4.10;;;10.00;41.40;;;;;;4986549;28;20046;-94
2023/04/20 02:57:59;;;;;;;14.13;4.28;;;10.00;41.70;;;;;;4987696;28;20065;-94
2023/04/20 03:00:26;;;;;;;8.68;4.30;;;10.10;41.60;;;;;;4962928;28;20054;-87
2023/04/20 03:02:54;;;;;;;8.20;3.42;;;10.10;41.70;;;;;;4985064;28;20064;-87
2023/04/20 03:05:23;;;;;;;6.88;3.53;;;10.10;41.80;;;;;;4985819;28;20057;-86
2023/04/20 03:07:51;;;;;;;11.75;4.43;;;10.10;41.70;;;;;;4984701;28;20058;-86
2023/04/20 03:10:18;;;;;;;10.77;4.32;;;10.20;41.80;;;;;;4986177;28;20146;-86
2023/04/20 03:12:45;;;;;;;8.38;4.35;;;10.20;42.00;;;;;;4984736;28;20054;-86
2023/04/20 03:15:14;;;;;;;7.93;4.18;;;10.20;41.90;;;;;;4984193;28;20927;-86
2023/04/20 03:17:42;;;;;;;9.25;4.88;;;10.20;42.10;;;;;;4984552;28;20061;-87
2023/04/20 03:20:10;;;;;;;7.15;3.78;;;10.20;42.50;;;;;;4990542;28;20058;-87
2023/04/20 03:22:38;;;;;;;7.75;3.78;;;10.20;42.50;;;;;;4984424;28;20061;-87
2023/04/20 03:25:06;;;;;;;8.30;3.90;;;10.20;42.60;;;;;;4985953;28;20222;-85
2023/04/20 03:27:33;;;;;;;7.75;3.95;;;10.20;42.60;;;;;;4985249;28;20057;-87
2023/04/20 03:30:01;;;;;;;7.40;3.65;;;10.20;42.70;;;;;;4982739;28;20054;-85
2023/04/20 03:32:28;;;;;;;6.55;3.45;;;10.20;43.00;;;;;;4985382;28;20410;-86
2023/04/20 03:34:55;;;;;;;6.95;3.78;;;10.20;43.10;;;;;;4984633;28;20376;-85
2023/04/20 03:37:22;;;;;;;10.05;3.40;;;10.30;43.20;;;;;;4984527;28;20509;-85
2023/04/20 03:39:51;;;;;;;6.55;3.70;;;10.30;43.30;;;;;;4984941;28;20406;-85
2023/04/20 03:42:19;;;;;;;7.93;3.90;;;10.40;43.40;;;;;;4985400;28;20374;-85
2023/04/20 03:44:46;;;;;;;9.38;3.92;;;10.40;43.30;;;;;;4982863;28;20138;-85
2023/04/20 03:47:14;;;;;;;4.97;3.35;;;10.40;43.20;;;;;;4984053;28;20065;-87
2023/04/20 03:49:41;;;;;;;14.60;4.60;;;10.50;43.10;;;;;;4984085;28;20053;-86
2023/04/20 03:52:08;;;;;;;10.32;4.80;;;10.50;43.20;;;;;;4978230;28;22308;-86
2023/04/20 03:54:35;;;;;;;6.70;4.00;;;10.50;43.40;;;;;;4984369;28;20062;-86
2023/04/20 03:57:04;;;;;;;11.38;4.35;;;10.50;43.60;;;;;;4984954;28;20047;-85
2023/04/20 03:59:32;;;;;;;9.00;3.63;;;10.50;44.30;;;;;;4984617;28;20080;-86
2023/04/20 04:02:02;;;;;;;9.43;4.63;;;10.50;44.10;;;;;;4985107;28;20069;-88
2023/04/20 04:04:29;;;;;;;4.80;3.25;;;10.40;44.10;;;;;;4984102;28;20054;-89
2023/04/20 04:06:56;;;;;;;6.93;3.58;;;10.40;44.10;;;;;;4984228;28;20387;-87
2023/04/20 04:09:25;;;;;;;8.30;4.20;;;10.40;44.20;;;;;;4984115;28;20057;-92
2023/04/20 04:11:52;;;;;;;10.35;4.30;;;10.40;44.10;;;;;;4984069;28;20069;-87
2023/04/20 04:14:23;;;;;;;7.30;3.97;;;10.40;44.40;;;;;;4982752;28;20775;-91
2023/04/20 04:16:50;;;;;;;8.02;4.28;;;10.40;44.70;;;;;;4983055;28;21571;-86
2023/04/20 04:19:18;;;;;;;5.05;3.50;;;10.30;44.80;;;;;;4984368;28;20070;-88
2023/04/20 04:21:45;;;;;;;7.32;4.13;;;10.30;44.80;;;;;;4984216;28;20061;-89
2023/04/20 04:24:13;;;;;;;8.85;4.18;;;10.30;44.90;;;;;;4981965;28;20433;-89
2023/04/20 04:26:40;;;;;;;7.90;3.97;;;10.20;44.90;;;;;;4982971;28;20054;-87
2023/04/20 04:29:07;;;;;;;6.70;4.15;;;10.20;45.00;;;;;;4981084;28;20050;-88
2023/04/20 04:31:36;;;;;;;7.53;3.90;;;10.20;45.00;;;;;;4982605;28;20069;-87
2023/04/20 04:34:03;;;;;;;13.68;5.50;;;10.20;45.20;;;;;;4982857;28;20509;-90
2023/04/20 04:36:31;;;;;;;7.68;4.30;;;10.20;45.30;;;;;;4982161;28;20058;-88
2023/04/20 04:38:58;;;;;;;8.00;4.70;;;10.20;45.40;;;;;;4982348;28;20829;-89
2023/04/20 04:41:26;;;;;;;11.15;5.40;;;10.20;45.50;;;;;;4982667;28;20121;-89
2023/04/20 04:43:53;;;;;;;7.82;3.67;;;10.10;45.30;;;;;;4983390;28;20054;-87
2023/04/20 04:46:21;;;;;;;5.78;3.70;;;10.10;45.40;;;;;;4981828;28;20062;-88
2023/04/20 04:48:50;;;;;;;5.65;3.67;;;10.10;45.30;;;;;;4982684;28;20057;-89
2023/04/20 04:51:17;;;;;;;6.32;3.80;;;10.10;45.30;;;;;;4982199;28;20510;-87
2023/04/20 04:53:46;;;;;;;5.13;3.28;;;10.10;45.20;;;;;;4982751;28;20509;-88
2023/04/20 04:56:13;;;;;;;10.48;4.43;;;10.10;45.20;;;;;;4982811;28;20046;-88
2023/04/20 04:58:41;;;;;;;7.22;4.03;;;10.10;45.50;;;;;;4983612;28;20057;-87
2023/04/20 05:01:08;;;;;;;14.88;5.05;;;10.10;45.70;;;;;;4980959;28;20056;-87
2023/04/20 05:03:36;;;;;;;6.20;3.90;;;10.10;45.70;;;;;;4979725;28;20065;-87
2023/04/20 05:06:05;;;;;;;9.70;4.60;;;10.10;45.70;;;;;;4981443;28;20418;-89
2023/04/20 05:08:32;;;;;;;10.43;4.80;;;10.10;45.70;;;;;;4983109;28;20528;-91
2023/04/20 05:10:59;;;;;;;8.38;4.05;;;10.10;45.70;;;;;;4984604;28;20489;-87
2023/04/20 05:13:27;;;;;;;6.88;4.35;;;10.10;46.10;;;;;;4986640;28;20405;-88
2023/04/20 05:15:54;;;;;;;14.23;6.53;;;10.10;45.80;;;;;;4979845;28;20058;-87
2023/04/20 05:18:22;;;;;;;10.73;5.30;;;10.10;46.30;;;;;;4983436;28;20513;-87
2023/04/20 05:20:49;;;;;;;10.52;5.63;;;10.10;46.60;;;;;;4981822;28;20050;-87
2023/04/20 05:23:18;;;;;;;8.43;5.75;;;10.00;46.70;;;;;;4981872;28;20073;-88
2023/04/20 05:25:46;;;;;;;10.95;5.50;;;10.00;46.90;;;;;;4989291;28;20050;-89
2023/04/20 05:28:13;;;;;;;9.65;5.03;;;9.90;47.30;;;;;;4982911;28;20061;-89
2023/04/20 05:30:44;;;;;;;7.40;4.20;;;10.00;47.30;;;;;;4983236;28;20058;-91
2023/04/20 05:33:11;;;;;;;7.72;4.60;;;9.90;47.70;;;;;;4981753;28;20406;-85
2023/04/20 05:35:39;;;;;;;7.32;4.13;;;9.80;47.10;;;;;;4980877;28;20054;-88
2023/04/20 05:38:07;;;;;;;8.63;4.25;;;9.80;47.10;;;;;;4983210;28;20434;-87
2023/04/20 05:40:36;;;;;;;5.95;3.72;;;9.80;47.20;;;;;;4981578;28;20387;-88
2023/04/20 05:43:03;;;;;;;7.10;4.38;;;9.90;47.30;;;;;;4986859;28;20050;-87
2023/04/20 05:45:32;;;;;;;7.90;4.13;;;9.90;47.40;;;;;;4985159;28;20065;-85
2023/04/20 05:48:04;;;;;;;8.52;5.03;;;9.90;47.70;;;;;;4986989;28;20061;-85
2023/04/20 05:50:31;;;;;;;11.27;4.90;;;9.90;48.20;;;;;;4986172;28;20406;-85
2023/04/20 05:52:59;;;;;;;8.65;4.53;;;10.00;48.00;;;;;;4985451;28;20084;-86
2023/04/20 05:55:26;;;;;;;6.10;4.05;;;10.00;47.80;;;;;;4987982;28;20058;-85
2023/04/20 05:57:55;;;;;;;10.60;4.72;;;10.00;47.80;;;;;;4986803;28;20141;-85
2023/04/20 06:00:23;;;;;;;7.00;4.50;;;10.00;47.90;;;;;;4984954;28;20051;-85
2023/04/20 06:02:50;;;;;;;6.10;4.20;;;10.00;47.80;;;;;;4985877;28;20588;-85
2023/04/20 06:05:17;;;;;;;7.05;4.18;;;10.00;47.80;;;;;;4986015;28;20073;-86
2023/04/20 06:07:45;;;;;;;7.78;4.63;;;10.10;47.80;;;;;;4986074;28;20051;-87
2023/04/20 06:10:12;;;;;;;8.02;4.32;;;10.10;47.90;;;;;;4986126;28;20058;-89
2023/04/20 06:12:39;;;;;;;7.70;4.35;;;10.10;47.90;;;;;;4985370;28;20058;-86
2023/04/20 06:15:09;;;;;;;8.25;3.97;;;10.10;48.00;;;;;;4988329;28;20509;-89
2023/04/20 06:17:39;;;;;;;7.20;4.22;;;10.20;48.10;;;;;;4984481;28;20418;-89
2023/04/20 06:20:08;;;;;;;8.73;4.45;;;10.20;48.00;;;;;;4986022;28;20061;-87
2023/04/20 06:22:35;;;;;;;11.95;5.53;;;10.30;48.00;;;;;;4985621;28;20065;-91
2023/04/20 06:25:03;;;;;;;10.25;4.53;;;10.30;48.50;;;;;;4985017;28;20054;-92
2023/04/20 06:27:30;;;;;;;7.93;4.47;;;10.30;48.40;;;;;;4987094;28;20066;-89
2023/04/20 06:29:58;;;;;;;9.82;5.45;;;10.30;48.40;;;;;;4984197;28;20387;-87
2023/04/20 06:32:27;;;;;;;10.85;5.45;;;10.30;48.60;;;;;;4986337;28;20065;-91
2023/04/20 06:34:55;;;;;;;5.97;4.43;;;10.30;48.90;;;;;;4985696;28;20062;-88
2023/04/20 06:37:28;;;;;;;9.07;4.35;;;10.30;48.60;;;;;;4984639;28;20515;-93
2023/04/20 06:39:56;;;;;;;5.80;4.47;;;10.30;48.60;;;;;;4982037;28;20058;-88
2023/04/20 06:42:23;;;;;;;8.90;4.88;;;10.30;48.70;;;;;;4983641;28;20058;-88
2023/04/20 06:44:51;;;;;;;11.02;5.88;;;10.40;49.00;;;;;;4984530;28;20062;-89
2023/04/20 06:47:18;;;;;;;9.05;5.20;;;10.30;49.30;;;;;;4985312;28;20517;-87
2023/04/20 06:49:48;;;;;;;9.35;4.78;;;10.30;49.10;;;;;;4983900;28;20069;-87
2023/04/20 06:52:15;;;;;;;9.55;6.18;;;10.30;49.00;;;;;;4985713;28;20054;-89
2023/04/20 06:54:42;;;;;;;8.20;5.10;;;10.30;49.60;;;;;;4982376;28;20050;-88
2023/04/20 06:57:12;;;;;;;7.95;4.68;;;10.40;49.30;;;;;;4984434;28;20074;-90
2023/04/20 06:59:39;;;;;;;8.05;4.70;;;10.30;49.10;;;;;;4983853;28;20062;-89
2023/04/20 07:02:07;;;;;;;7.30;4.70;;;10.20;49.40;;;;;;4984818;28;20054;-89
2023/04/20 07:04:38;;;;;;;8.18;5.20;;;10.20;49.40;;;;;;4983535;28;20073;-91
2023/04/20 07:07:07;;;;;;;6.45;4.78;;;10.30;50.10;;;;;;4984731;28;20422;-87
2023/04/20 07:09:35;;;;;;;5.95;4.30;;;10.20;49.60;;;;;;4984980;28;20057;-88
2023/04/20 07:12:02;;;;;;;7.82;4.50;;;10.30;49.70;;;;;;4983913;28;20054;-88
2023/04/20 07:14:30;;;;;;;7.63;4.57;;;10.30;49.70;;;;;;4982670;28;20053;-90
2023/04/20 07:16:58;;;;;;;7.75;4.35;;;10.30;49.80;;;;;;4984247;28;20057;-89
2023/04/20 07:19:25;;;;;;;8.20;5.03;;;10.30;49.90;;;;;;4984531;28;20077;-89
2023/04/20 07:21:52;;;;;;;6.25;4.22;;;10.30;50.20;;;;;;4984407;28;20406;-88
2023/04/20 07:24:21;;;;;;;6.22;4.13;;;10.30;50.00;;;;;;4990506;28;20055;-89
2023/04/20 07:26:50;;;;;;;8.07;5.38;;;10.30;50.00;;;;;;4986023;28;20697;-94
2023/04/20 07:29:17;;;;;;;5.82;4.30;;;10.20;50.80;;;;;;4984474;28;20077;-90
2023/04/20 07:31:44;;;;;;;7.25;4.93;;;10.20;50.70;;;;;;4984974;28;20061;-92
2023/04/20 07:34:12;;;;;;;6.65;4.00;;;10.20;50.60;;;;;;4984487;28;20291;-93
2023/04/20 07:36:39;;;;;;;8.00;4.45;;;10.10;50.70;;;;;;4991512;28;20050;-94
2023/04/20 07:39:06;;;;;;;4.97;3.90;;;10.10;50.80;;;;;;4985878;28;20050;-91
2023/04/20 07:41:36;;;;;;;7.18;4.10;;;10.20;50.90;;;;;;4985195;28;20054;-91
2023/04/20 07:44:03;;;;;;;5.43;3.95;;;10.20;51.00;;;;;;4984635;28;20435;-93
2023/04/20 07:46:30;;;;;;;5.60;4.38;;;10.20;50.90;;;;;;4990159;28;20310;-93
2023/04/20 07:48:58;;;;;;;7.82;4.70;;;10.20;51.00;;;;;;4990673;28;20359;-92
2023/04/20 07:51:25;;;;;;;8.07;3.95;;;10.20;51.10;;;;;;4984600;28;20057;-91
2023/04/20 07:53:52;;;;;;;5.75;3.92;;;10.30;51.40;;;;;;4984950;28;20058;-92
2023/04/20 07:56:20;;;;;;;5.03;3.65;;;10.30;51.20;;;;;;4985008;28;20051;-90
2023/04/20 07:58:49;;;;;;;5.55;3.83;;;10.30;51.30;;;;;;4985491;28;20050;-92
2023/04/20 08:01:16;;;;;;;7.80;4.10;;;10.30;51.40;;;;;;4983666;28;20043;-93
2023/04/20 08:03:43;;;;;;;8.10;3.83;;;10.40;51.30;;;;;;4984915;28;20061;-90
2023/04/20 08:06:11;;;;;;;5.78;3.85;;;10.40;51.20;;;;;;4990430;28;20050;-91
2023/04/20 08:08:38;;;;;;;6.05;3.50;;;10.40;51.10;;;;;;4985062;28;20050;-92
2023/04/20 08:11:06;;;;;;;3.85;2.90;;;10.50;51.10;;;;;;4984794;28;20066;-93
2023/04/20 08:13:35;;;;;;;4.43;3.00;;;10.50;51.00;;;;;;4985885;28;20074;-87
2023/04/20 08:16:04;;;;;;;4.03;2.60;;;10.60;51.00;;;;;;4983461;28;20073;-86
2023/04/20 08:18:32;;;;;;;5.10;3.03;;;10.60;51.00;;;;;;4983885;28;20065;-85
2023/04/20 08:20:59;;;;;;;4.18;3.20;;;10.70;50.80;;;;;;4982363;28;20050;-93
2023/04/20 08:23:28;;;;;;;4.13;3.28;;;10.70;50.90;;;;;;4982674;28;20077;-88
2023/04/20 08:25:56;;;;;;;4.88;3.20;;;10.70;50.90;;;;;;4984825;28;20053;-90
2023/04/20 08:28:23;;;;;;;4.53;3.15;;;10.70;50.80;;;;;;4984191;28;20046;-87
2023/04/20 08:30:51;;;;;;;5.30;3.10;;;10.80;50.80;;;;;;4986814;28;20050;-91
2023/04/20 08:33:20;;;;;;;4.65;3.00;;;10.80;50.60;;;;;;4985210;28;20054;-93
2023/04/20 08:35:50;;;;;;;3.83;2.88;;;10.90;50.50;;;;;;4994705;28;20493;-94
2023/04/20 08:38:18;;;;;;;3.80;3.00;;;10.90;50.40;;;;;;4987101;28;20054;-94
2023/04/20 08:40:45;;;;;;;3.55;2.42;;;10.90;50.30;;;;;;4986498;28;20291;-94
2023/04/20 08:43:13;;;;;;;4.65;2.50;;;10.90;50.30;;;;;;4985615;28;20058;-94
2023/04/20 08:45:46;;;;;;;3.67;2.67;;;10.90;50.30;;;;;;4985367;28;20050;-95
2023/04/20 08:48:14;;;;;;;4.90;2.55;;;10.90;50.30;;;;;;4990651;28;20053;-94
2023/04/20 08:50:44;;;;;;;2.75;2.45;;;10.90;50.30;;;;;;4990326;28;20559;-95
2023/04/20 08:53:13;;;;;;;3.55;2.80;;;11.00;50.40;;;;;;4991638;28;20050;-95
2023/04/20 08:55:40;;;;;;;2.80;2.50;;;11.00;50.40;;;;;;4991879;28;20077;-89
2023/04/20 08:58:08;;;;;;;3.85;2.38;;;11.00;50.50;;;;;;4992134;28;20050;-92
2023/04/20 09:00:50;;;;;;;2.17;1.98;;;11.00;50.50;;;;;;4995820;28;20069;-93
2023/04/20 09:03:18;;;;;;;2.58;2.30;;;11.00;50.50;;;;;;5003517;28;20468;-93
2023/04/20 09:05:51;;;;;;;3.10;2.30;;;11.10;50.40;;;;;;5005398;28;20073;-95
2023/04/20 09:08:34;;;;;;;3.55;2.25;;;11.20;50.60;;;;;;5003675;28;20062;-94
2023/04/20 09:14:12;;;;;;;3.00;2.10;;;11.30;50.40;;;;;;5011108;28;20042;-45
2023/04/20 09:16:49;;;;;;;2.35;2.03;;;11.40;50.10;;;;;;5010176;28;20061;-41
2023/04/20 09:19:21;;;;;;;3.85;1.80;;;11.40;49.90;;;;;;5019581;28;20437;-40
2023/04/20 09:21:50;;;;;;;2.47;1.90;;;11.50;49.80;;;;;;5019479;28;20490;-45
2023/04/20 09:24:20;;;;;;;2.05;1.70;;;11.50;49.60;;;;;;5018573;28;20045;-46
2023/04/20 09:26:47;;;;;;;2.05;1.80;;;11.50;49.40;;;;;;5013960;28;20080;-41
2023/04/20 09:29:19;;;;;;;2.72;2.00;;;11.50;49.50;;;;;;5020954;28;20049;-42
2023/04/20 09:31:46;;;;;;;2.30;1.90;;;11.50;49.60;;;;;;5009537;28;20057;-40
2023/04/20 09:34:14;;;;;;;2.33;1.85;;;11.50;49.60;;;;;;5018863;28;20053;-42
2023/04/20 09:36:43;;;;;;;2.20;1.80;;;11.50;49.70;;;;;;5011131;28;20057;-39
2023/04/20 09:39:14;;;;;;;4.07;2.15;;;11.50;49.90;;;;;;5004042;28;20060;-42
2023/04/20 09:41:42;;;;;;;2.15;1.65;;;11.50;50.10;;;;;;5019294;28;20050;-40
2023/04/20 09:44:10;;;;;;;3.30;1.50;;;11.50;50.00;;;;;;5017479;28;20402;-38
2023/04/20 09:46:39;;;;;;;3.83;1.60;;;11.60;49.80;;;;;;5010041;28;20050;-43
2023/04/20 09:49:09;;;;;;;2.67;1.27;;;11.60;49.80;;;;;;5014030;28;20064;-41
2023/04/20 09:51:38;;;;;;;1.92;1.25;;;11.60;49.60;;;;;;5010519;28;20418;-39
2023/04/20 09:54:07;;;;;;;1.42;1.08;;;11.60;49.60;;;;;;5016747;28;20053;-43
2023/04/20 09:56:36;;;;;;;2.85;1.00;;;11.60;49.60;;;;;;5009990;28;20053;-47
2023/04/20 09:59:03;;;;;;;0.90;0.80;;;11.70;49.50;;;;;;5012979;28;20053;-43
2023/04/20 10:01:34;;;;;;;0.82;0.70;;;11.70;49.50;;;;;;5011874;28;20054;-42
2023/04/20 10:04:09;;;;;;;1.63;1.13;;;11.80;49.50;;;;;;5011635;28;20060;-42
2023/04/20 10:06:37;;;;;;;1.48;1.08;;;11.90;49.30;;;;;;5010958;28;20061;-43
2023/04/20 10:09:06;;;;;;;2.58;0.70;;;11.90;49.10;;;;;;5007345;28;20468;-42
2023/04/20 10:11:36;;;;;;;1.10;1.00;;;12.00;48.90;;;;;;5007107;28;20058;-42
2023/04/20 10:14:15;;;;;;;1.17;0.77;;;12.00;48.70;;;;;;5010811;28;20046;-43
2023/04/20 10:16:43;;;;;;;0.88;0.80;;;12.10;48.50;;;;;;5005928;28;20516;-45
2023/04/20 10:19:10;;;;;;;1.02;0.93;;;12.10;48.50;;;;;;5013386;28;20054;-42
2023/04/20 10:21:46;;;;;;;1.83;1.17;;;12.20;48.50;;;;;;5009554;28;20049;-44
2023/04/20 10:24:14;;;;;;;3.10;1.00;;;12.20;48.10;;;;;;5009446;28;20062;-40
2023/04/20 10:26:45;;;;;;;1.13;1.00;;;12.20;48.20;;;;;;5008958;28;20062;-41
2023/04/20 10:29:24;;;;;;;1.40;1.15;;;12.20;48.10;;;;;;5010442;28;20053;-45
2023/04/20 10:31:52;;;;;;;1.85;1.20;;;12.20;47.90;;;;;;5014095;28;20049;-44
2023/04/20 10:34:30;;;;;;;1.88;1.42;;;12.20;48.00;;;;;;5012026;28;20060;-43
2023/04/20 10:37:08;;;;;;;2.75;1.83;;;12.20;47.80;;;;;;5016829;28;20057;-41
2023/04/20 10:39:36;;;;;;;2.35;1.85;;;12.20;48.00;;;;;;5019637;28;20065;-39
2023/04/20 10:42:05;;;;;;;2.50;1.70;;;12.30;48.20;;;;;;5021265;28;20049;-42
2023/04/20 10:44:35;;;;;;;2.70;1.80;;;12.20;48.40;;;;;;5016972;28;20046;-42
2023/04/20 10:47:02;;;;;;;2.85;1.70;;;12.20;48.60;;;;;;5008456;28;20061;-40
2023/04/20 10:49:31;;;;;;;8.13;2.13;;;12.20;48.70;;;;;;5017540;28;20057;-41
2023/04/20 10:51:58;;;;;;;2.45;1.95;;;12.30;48.90;;;;;;5018554;28;20057;-43
2023/04/20 10:54:27;;;;;;;3.47;2.30;;;12.30;49.00;;;;;;5020480;28;20076;-43
2023/04/20 10:56:54;;;;;;;4.10;2.15;;;12.30;49.10;;;;;;5022701;28;20533;-40
2023/04/20 10:59:24;;;;;;;7.28;3.20;;;12.30;49.20;;;;;;5010884;28;20512;-40
2023/04/20 11:01:52;;;;;;;4.22;2.90;;;12.40;49.40;;;;;;5018577;28;20061;-41
2023/04/20 11:04:30;;;;;;;4.72;3.20;;;12.40;49.30;;;;;;5012711;28;20079;-42
2023/04/20 11:07:05;;;;;;;3.88;3.00;;;12.50;49.10;;;;;;5021787;28;20053;-43
2023/04/20 11:09:33;;;;;;;2.78;2.38;;;12.50;48.90;;;;;;5020922;28;20050;-45
2023/04/20 11:12:02;;;;;;;3.65;2.85;;;12.60;48.80;;;;;;5018110;28;20049;-45
2023/04/20 11:14:32;;;;;;;2.80;2.17;;;12.60;48.40;;;;;;5019974;28;20057;-42
2023/04/20 11:17:00;;;;;;;5.70;3.10;;;12.70;48.20;;;;;;5023013;28;20062;-42
2023/04/20 11:19:29;;;;;;;2.75;2.28;;;12.70;48.00;;;;;;5012849;28;20391;-45
2023/04/20 11:21:56;;;;;;;3.42;2.30;;;12.70;47.90;;;;;;5014664;28;20053;-42
2023/04/20 11:24:25;;;;;;;4.07;2.47;;;12.80;47.90;;;;;;5018018;28;20049;-44
2023/04/20 11:26:54;;;;;;;2.50;2.10;;;12.80;47.80;;;;;;5022298;28;20060;-39
2023/04/20 11:29:28;;;;;;;4.50;2.28;;;12.80;47.70;;;;;;5012565;28;20053;-43
2023/04/20 11:31:57;;;;;;;3.08;2.47;;;12.80;47.70;;;;;;5016625;28;20064;-41
2023/04/20 11:34:25;;;;;;;3.63;2.40;;;12.90;47.70;;;;;;5013621;28;20064;-44
2023/04/20 11:36:55;;;;;;;5.93;2.72;;;12.90;47.50;;;;;;5005464;28;20045;-41
2023/04/20 11:39:25;;;;;;;4.53;3.20;;;12.90;47.50;;;;;;5012942;28;20084;-46
2023/04/20 11:41:53;;;;;;;4.15;2.83;;;12.90;47.40;;;;;;5017269;28;20498;-45
2023/04/20 11:44:21;;;;;;;4.80;3.40;;;12.90;47.40;;;;;;5023154;28;20053;-41
2023/04/20 11:46:49;;;;;;;5.00;3.47;;;12.90;47.20;;;;;;5019945;28;20053;-44
2023/04/20 11:49:17;;;;;;;3.75;3.30;;;13.00;47.20;;;;;;5009485;28;20057;-38
2023/04/20 11:51:45;;;;;;;6.40;3.58;;;13.00;47.30;;;;;;5014682;28;20058;-41
2023/04/20 11:54:13;;;;;;;5.20;3.83;;;13.00;47.40;;;;;;5018654;28;20060;-41
2023/04/20 11:56:40;;;;;;;6.57;4.10;;;13.10;47.40;;;;;;5020624;28;20062;-41
2023/04/20 11:59:08;;;;;;;5.22;3.60;;;13.10;47.00;;;;;;5021750;28;20061;-42
2023/04/20 12:01:36;;;;;;;4.13;3.25;;;13.20;47.00;;;;;;5010192;28;20061;-43
2023/04/20 12:04:03;;;;;;;7.97;4.70;;;13.20;47.00;;;;;;5007332;28;20049;-46
2023/04/20 12:06:32;;;;;;;5.95;4.20;;;13.20;46.90;;;;;;5017766;28;20061;-43
2023/04/20 12:09:01;;;;;;;8.95;4.60;;;13.30;47.00;;;;;;5017170;28;20057;-42
2023/04/20 12:11:28;;;;;;;6.82;4.53;;;13.30;47.00;;;;;;5014934;28;20057;-41
2023/04/20 12:13:55;;;;;;;5.90;4.70;;;13.40;46.90;;;;;;5017421;28;20053;-45
2023/04/20 12:16:22;;;;;;;7.20;4.18;;;13.40;46.70;;;;;;5013655;28;20502;-46
2023/04/20 12:18:50;;;;;;;8.07;4.70;;;13.50;46.50;;;;;;5011603;28;20053;-42
2023/04/20 12:21:18;;;;;;;5.57;4.03;;;13.50;46.30;;;;;;5014171;28;20060;-47
2023/04/20 12:23:48;;;;;;;6.53;3.95;;;13.60;46.10;;;;;;5009248;28;20053;-43
2023/04/20 12:26:15;;;;;;;7.47;4.30;;;13.60;46.00;;;;;;5017878;28;20064;-47
2023/04/20 12:28:43;;;;;;;5.72;3.80;;;13.60;45.90;;;;;;5016340;28;20057;-44
2023/04/20 12:31:11;;;;;;;5.97;4.20;;;13.60;45.80;;;;;;5010900;28;20083;-45
2023/04/20 12:33:38;;;;;;;6.32;4.18;;;13.60;45.60;;;;;;5009476;28;20045;-43
2023/04/20 12:36:06;;;;;;;7.85;4.70;;;13.60;45.60;;;;;;5010342;28;20060;-46
2023/04/20 12:38:33;;;;;;;6.15;4.28;;;13.60;45.50;;;;;;5013368;28;20049;-47
2023/04/20 12:41:03;;;;;;;6.40;4.43;;;13.60;45.50;;;;;;5012318;28;20054;-42
2023/04/20 12:43:30;;;;;;;8.27;4.20;;;13.60;45.40;;;;;;5012901;28;20052;-44
2023/04/20 12:45:57;;;;;;;8.20;4.55;;;13.60;45.40;;;;;;5007230;28;20061;-46
2023/04/20 12:48:25;;;;;;;7.18;4.47;;;13.60;45.30;;;;;;5012754;28;20500;-45
2023/04/20 12:50:52;;;;;;;8.13;4.57;;;13.60;45.10;;;;;;5013596;28;20064;-47
2023/04/20 12:53:19;;;;;;;6.93;4.65;;;13.60;45.00;;;;;;5016504;28;20045;-43